DW7048 Thessaloniki GR current weather conditions

sailwx.info

Wind from 091

Air temperature 22.8° C
Dewpoint 15.6° C

Last reported at 2020-Jul-11 01:00 UTC.
Time now 2020-Jul-11 01:26 UTC

Location: N 40°34' E 022°58'.
View on Google Maps.

See reports from other nearby stations

  
Tides and Currents Weather Stations Pressure Air Temp Water Temp Dewpoint Dewpoint Depression Visibility Wind Speed Wind Dir Waves Ship Positions
date/time (UTC)wind fromknots sea level pressurealtimeterstation pressurevisibilityair tempwater tempwave heightnotes
2020-Jul-11 01:00 091 22.8
2020-Jul-11 00:45 090 23.3
2020-Jul-11 00:30 090 23.3
2020-Jul-11 00:15 098 0 gusting 2 23.3
2020-Jul-10 23:46 100 23.3
2020-Jul-10 23:31 106 23.3
2020-Jul-10 23:16 094 23.9
2020-Jul-10 23:01 079 23.9
2020-Jul-10 22:48 074 1 gusting 3 23.3
2020-Jul-10 22:31 107 1 gusting 5 23.3
2020-Jul-10 22:17 055 1 gusting 4 22.8
2020-Jul-10 22:01 094 3 gusting 5 23.9
2020-Jul-10 21:46 126 23.9
2020-Jul-10 21:31 126 23.9
2020-Jul-10 21:16 134 0 gusting 2 24.4
2020-Jul-10 21:01 049 24.4
2020-Jul-10 20:45 048 25.0
2020-Jul-10 20:31 049 25.0
2020-Jul-10 20:16 053 1 gusting 3 25.0
2020-Jul-10 20:00 091 25.0
2020-Jul-10 19:46 108 25.0
2020-Jul-10 19:30 159 4 gusting 6 25.6
2020-Jul-10 19:15 118 0 gusting 1 26.1
2020-Jul-10 19:00 114 0 gusting 2 26.1
2020-Jul-10 18:46 082 1 gusting 3 26.1
2020-Jul-10 18:30 100 1 gusting 3 26.7
2020-Jul-10 18:16 120 0 gusting 2 26.7
2020-Jul-10 18:00 105 26.7
2020-Jul-10 17:45 104 27.2
2020-Jul-10 17:30 117 1 gusting 5 28.3
2020-Jul-10 17:17 141 30.0
2020-Jul-10 17:00 141 0 gusting 1 30.0
2020-Jul-10 16:45 113 30.6
2020-Jul-10 16:30 174 30.6
2020-Jul-10 16:15 167 30.6
2020-Jul-10 16:00 198 0 gusting 2 30.0
2020-Jul-10 15:45 264 1 gusting 3 29.4
2020-Jul-10 15:30 275 1 gusting 5 28.9
2020-Jul-10 15:15 210 0 gusting 3 30.0
2020-Jul-10 15:00 263 1 gusting 4 29.4
2020-Jul-10 14:45 265 2 gusting 5 29.4
2020-Jul-10 14:30 276 2 gusting 5 29.4
2020-Jul-10 14:15 214 0 gusting 5 30.0
2020-Jul-10 14:00 304 1 gusting 4 28.9
2020-Jul-10 13:45 236 2 gusting 6 27.8
2020-Jul-10 13:30 274 3 gusting 6 28.3
2020-Jul-10 13:17 315 1 gusting 6 28.3
2020-Jul-10 13:01 272 3 gusting 6 28.3
2020-Jul-10 12:47 233 3 gusting 6 27.8
2020-Jul-10 12:31 280 2 gusting 5 28.3
2020-Jul-10 12:16 255 3 gusting 6 28.3
2020-Jul-10 12:01 326 2 gusting 6 28.3
2020-Jul-10 11:46 245 1 gusting 5 28.9
2020-Jul-10 11:31 243 2 gusting 5 28.3
2020-Jul-10 11:16 226 2 gusting 5 27.8
2020-Jul-10 11:01 329 2 gusting 6 27.2
2020-Jul-10 10:45 290 5 gusting 9 26.7
2020-Jul-10 10:30 274 5 gusting 9 26.1
2020-Jul-10 10:18 305 5 gusting 7 26.1
2020-Jul-10 10:00 267 4 gusting 7 26.1
2020-Jul-10 09:45 266 3 gusting 6 26.1
2020-Jul-10 09:31 284 4 gusting 6 25.6
2020-Jul-10 09:16 264 4 gusting 6 25.6
2020-Jul-10 09:00 214 3 gusting 5 25.6
2020-Jul-10 08:45 257 3 gusting 5 25.6
2020-Jul-10 08:31 266 3 gusting 5 25.6
2020-Jul-10 08:16 270 2 gusting 5 25.0
2020-Jul-10 08:00 272 2 gusting 4 25.0
2020-Jul-10 07:45 269 1 gusting 4 25.0
2020-Jul-10 07:30 285 2 gusting 4 24.4
2020-Jul-10 07:15 263 1 gusting 4 24.4
2020-Jul-10 07:00 281 1 gusting 3 25.0
2020-Jul-10 06:46 278 1 gusting 2 25.6
2020-Jul-10 06:30 224 0 gusting 1 25.6
2020-Jul-10 06:15 225 0 gusting 1 26.1
2020-Jul-10 06:00 205 26.7
2020-Jul-10 05:45 190 26.1
2020-Jul-10 05:30 165 25.0
2020-Jul-10 05:15 141 0 gusting 2 25.6
2020-Jul-10 05:00 098 26.1
2020-Jul-10 04:45 098 25.0
2020-Jul-10 04:30 098 23.9
2020-Jul-10 04:01 072 22.8
2020-Jul-10 03:47 072 0 gusting 2 21.1
2020-Jul-10 03:31 091 0 gusting 1 20.6
2020-Jul-10 03:17 095 20.6
2020-Jul-10 03:01 103 0 gusting 2 21.1
2020-Jul-10 02:46 096 21.1
2020-Jul-10 02:31 115 0 gusting 2 21.7
2020-Jul-10 02:16 120 21.7
2020-Jul-10 02:00 120 22.2
2020-Jul-10 01:46 075 22.2
2020-Jul-10 01:31 075 22.8
2020-Jul-10 01:16 075 22.8
2020-Jul-10 01:00 075 22.8
2020-Jul-10 00:46 075 22.8
2020-Jul-10 00:30 075 0 gusting 1 22.8
2020-Jul-10 00:16 081 0 gusting 1 22.8
2020-Jul-10 00:00 082 0 gusting 2 23.3
2020-Jul-09 23:45 108 0 gusting 1 23.3
2020-Jul-09 23:31 157 0 gusting 4 23.3
2020-Jul-09 23:15 128 0 gusting 3 23.9
2020-Jul-09 23:00 115 23.9
2020-Jul-09 22:45 122 23.9
2020-Jul-09 22:30 122 23.9
2020-Jul-09 22:15 121 23.9
2020-Jul-09 22:01 125 0 gusting 1 23.9
2020-Jul-09 21:45 126 23.9
2020-Jul-09 21:30 125 23.9
2020-Jul-09 21:15 126 23.9
2020-Jul-09 21:00 125 23.9
2020-Jul-09 20:45 083 23.3
2020-Jul-09 20:30 098 0 gusting 2 23.3
2020-Jul-09 20:15 108 1 gusting 3 23.3
2020-Jul-09 20:00 098 1 gusting 3 23.3
2020-Jul-09 19:45 107 1 gusting 6 23.9
2020-Jul-09 19:30 089 1 gusting 4 23.9
2020-Jul-09 19:15 081 3 gusting 6 24.4
2020-Jul-09 19:00 100 3 gusting 6 24.4
2020-Jul-09 18:45 114 2 gusting 8 24.4
2020-Jul-09 18:30 075 2 gusting 6 25.0
2020-Jul-09 18:15 104 1 gusting 6 25.0
2020-Jul-09 18:00 198 5 gusting 10 25.6
2020-Jul-09 17:45 133 4 gusting 8 26.1
2020-Jul-09 17:30 131 2 gusting 5 26.7
2020-Jul-09 17:15 153 4 gusting 7 27.2
2020-Jul-09 17:00 131 3 gusting 6 27.2
2020-Jul-09 16:45 181 2 gusting 5 27.8
2020-Jul-09 16:30 191 5 gusting 7 27.8
2020-Jul-09 16:15 166 1 gusting 4 28.3
2020-Jul-09 15:46 278 1 gusting 4 28.3
2020-Jul-09 15:33 281 0 gusting 2 30.6
2020-Jul-09 15:16 242 0 gusting 3 30.0
2020-Jul-09 15:01 255 0 gusting 2 30.6
2020-Jul-09 14:46 354 0 gusting 2 30.6
2020-Jul-09 14:32 222 0 gusting 3 30.0
2020-Jul-09 14:16 256 0 gusting 5 29.4
2020-Jul-09 13:46 287 2 gusting 6 27.8
2020-Jul-09 13:30 255 3 gusting 6 27.8
2020-Jul-09 13:15 278 1 gusting 4 27.8
2020-Jul-09 13:01 295 1 gusting 4 28.3
2020-Jul-09 12:46 291 1 gusting 4 28.3
2020-Jul-09 12:30 283 1 gusting 6 26.7
2020-Jul-09 12:16 274 4 gusting 6 26.7
2020-Jul-09 12:00 266 4 gusting 6 25.6
2020-Jul-09 11:46 247 4 gusting 7 25.0
2020-Jul-09 11:30 275 4 gusting 6 25.6
2020-Jul-09 11:16 259 3 gusting 6 25.6
2020-Jul-09 11:00 294 3 gusting 6 25.0
2020-Jul-09 10:46 278 4 gusting 6 25.0
2020-Jul-09 10:31 326 4 gusting 6 25.0
2020-Jul-09 10:16 271 4 gusting 6 25.0
2020-Jul-09 10:00 249 3 gusting 6 25.0
2020-Jul-09 09:45 281 2 gusting 6 25.0
2020-Jul-09 09:30 229 3 gusting 6 25.0
2020-Jul-09 09:15 280 3 gusting 6 25.0
2020-Jul-09 09:00 286 3 gusting 6 25.0
2020-Jul-09 08:45 275 4 gusting 6 24.4
2020-Jul-09 08:30 281 2 gusting 4 23.9
2020-Jul-09 08:15 275 3 gusting 4 23.3
2020-Jul-09 08:00 259 2 gusting 5 23.3
2020-Jul-09 07:47 281 2 gusting 4 23.3
2020-Jul-09 07:32 242 2 gusting 5 22.8
2020-Jul-09 07:19 280 2 gusting 5 22.2
2020-Jul-09 07:01 278 2 gusting 5 22.2
2020-Jul-09 06:46 248 2 gusting 4 22.2
2020-Jul-09 06:31 239 1 gusting 3 22.8
2020-Jul-09 06:16 269 22.8
2020-Jul-09 06:02 273 22.8
2020-Jul-09 05:46 274 0 gusting 2 23.3
2020-Jul-09 05:31 248 0 gusting 1 23.3
2020-Jul-09 05:16 184 0 gusting 1 22.2
2020-Jul-09 05:01 128 1 gusting 4 21.7
2020-Jul-09 04:46 121 1 gusting 2 21.7
2020-Jul-09 04:30 104 0 gusting 2 21.1
2020-Jul-09 04:16 134 0 gusting 3 20.6
2020-Jul-09 04:01 135 1 gusting 3 20.6
2020-Jul-09 03:46 168 20.6
2020-Jul-09 03:31 207 20.0
2020-Jul-09 03:15 207 20.0
2020-Jul-09 03:01 207 20.6
2020-Jul-09 02:45 207 20.6
2020-Jul-09 02:31 269 20.6
2020-Jul-09 02:15 287 20.6
2020-Jul-09 02:00 255 0 gusting 3 20.6
2020-Jul-09 01:46 280 0 gusting 2 21.1
2020-Jul-09 01:30 323 21.1
2020-Jul-09 01:15 312 2 gusting 4 21.1
2020-Jul-09 01:01 266 2 gusting 4 21.1